sensor_id;sensor_type;location;lat;lon;timestamp;temperature;humidity
21001;DHT22;10658;50.920;12.238;2023-07-24T00:00:27;20.40;99.90
21001;DHT22;10658;50.920;12.238;2023-07-24T00:04:30;20.30;99.90
21001;DHT22;10658;50.920;12.238;2023-07-24T00:08:31;20.30;99.90
21001;DHT22;10658;50.920;12.238;2023-07-24T00:12:32;20.30;99.90
21001;DHT22;10658;50.920;12.238;2023-07-24T00:16:33;20.20;99.90
21001;DHT22;10658;50.920;12.238;2023-07-24T00:20:33;20.30;99.90
21001;DHT22;10658;50.920;12.238;2023-07-24T00:24:34;20.30;99.90
21001;DHT22;10658;50.920;12.238;2023-07-24T00:28:35;20.30;99.90
21001;DHT22;10658;50.920;12.238;2023-07-24T00:32:35;20.20;99.90
21001;DHT22;10658;50.920;12.238;2023-07-24T00:36:37;20.20;99.90
21001;DHT22;10658;50.920;12.238;2023-07-24T00:40:40;20.20;99.90
21001;DHT22;10658;50.920;12.238;2023-07-24T00:44:41;20.20;99.90
21001;DHT22;10658;50.920;12.238;2023-07-24T00:48:42;20.30;99.90
21001;DHT22;10658;50.920;12.238;2023-07-24T00:52:43;20.30;99.90
21001;DHT22;10658;50.920;12.238;2023-07-24T00:56:46;20.30;99.90
21001;DHT22;10658;50.920;12.238;2023-07-24T01:00:48;20.30;99.90
21001;DHT22;10658;50.920;12.238;2023-07-24T01:04:50;20.20;99.90
21001;DHT22;10658;50.920;12.238;2023-07-24T01:08:51;20.10;99.90
21001;DHT22;10658;50.920;12.238;2023-07-24T01:12:59;20.10;99.90
21001;DHT22;10658;50.920;12.238;2023-07-24T01:17:01;20.10;99.90
21001;DHT22;10658;50.920;12.238;2023-07-24T01:21:05;20.10;99.90
21001;DHT22;10658;50.920;12.238;2023-07-24T01:25:48;20.10;99.90
21001;DHT22;10658;50.920;12.238;2023-07-24T01:29:51;20.00;99.90
21001;DHT22;10658;50.920;12.238;2023-07-24T01:33:52;20.00;99.90
21001;DHT22;10658;50.920;12.238;2023-07-24T01:37:53;20.10;99.90
21001;DHT22;10658;50.920;12.238;2023-07-24T01:41:55;20.10;99.90
21001;DHT22;10658;50.920;12.238;2023-07-24T01:45:56;20.10;99.90
21001;DHT22;10658;50.920;12.238;2023-07-24T01:49:57;20.10;99.90
21001;DHT22;10658;50.920;12.238;2023-07-24T01:53:58;20.10;99.90
21001;DHT22;10658;50.920;12.238;2023-07-24T01:57:59;20.10;99.90
21001;DHT22;10658;50.920;12.238;2023-07-24T02:02:00;20.10;99.90
21001;DHT22;10658;50.920;12.238;2023-07-24T02:06:01;20.10;99.90
21001;DHT22;10658;50.920;12.238;2023-07-24T02:10:02;20.10;99.90
21001;DHT22;10658;50.920;12.238;2023-07-24T02:14:03;20.10;99.90
21001;DHT22;10658;50.920;12.238;2023-07-24T02:18:04;20.10;99.90
21001;DHT22;10658;50.920;12.238;2023-07-24T02:22:05;20.10;99.90
21001;DHT22;10658;50.920;12.238;2023-07-24T02:26:09;20.10;99.90
21001;DHT22;10658;50.920;12.238;2023-07-24T02:30:10;20.20;99.90
21001;DHT22;10658;50.920;12.238;2023-07-24T02:34:11;20.10;99.90
21001;DHT22;10658;50.920;12.238;2023-07-24T02:38:15;20.20;99.90
21001;DHT22;10658;50.920;12.238;2023-07-24T02:42:15;20.10;99.90
21001;DHT22;10658;50.920;12.238;2023-07-24T02:46:18;20.10;99.90
21001;DHT22;10658;50.920;12.238;2023-07-24T02:50:19;20.10;99.90
21001;DHT22;10658;50.920;12.238;2023-07-24T02:54:20;20.10;99.90
21001;DHT22;10658;50.920;12.238;2023-07-24T02:58:21;20.00;99.90
21001;DHT22;10658;50.920;12.238;2023-07-24T03:02:24;20.00;99.90
21001;DHT22;10658;50.920;12.238;2023-07-24T03:06:27;20.10;99.90
21001;DHT22;10658;50.920;12.238;2023-07-24T03:10:30;20.10;99.90
21001;DHT22;10658;50.920;12.238;2023-07-24T03:14:34;20.10;99.90
21001;DHT22;10658;50.920;12.238;2023-07-24T03:18:37;20.10;99.90
21001;DHT22;10658;50.920;12.238;2023-07-24T03:22:41;20.00;99.90
21001;DHT22;10658;50.920;12.238;2023-07-24T03:26:45;20.00;99.90
21001;DHT22;10658;50.920;12.238;2023-07-24T03:30:46;20.00;99.90
21001;DHT22;10658;50.920;12.238;2023-07-24T03:34:48;19.90;99.90
21001;DHT22;10658;50.920;12.238;2023-07-24T03:38:55;19.80;99.90
21001;DHT22;10658;50.920;12.238;2023-07-24T03:43:05;19.80;99.90
21001;DHT22;10658;50.920;12.238;2023-07-24T03:47:10;19.60;99.90
21001;DHT22;10658;50.920;12.238;2023-07-24T03:51:15;19.60;99.90
21001;DHT22;10658;50.920;12.238;2023-07-24T03:55:17;19.60;99.90
21001;DHT22;10658;50.920;12.238;2023-07-24T03:59:21;19.50;99.90
21001;DHT22;10658;50.920;12.238;2023-07-24T04:03:24;19.60;99.90
21001;DHT22;10658;50.920;12.238;2023-07-24T04:07:33;19.50;99.90
21001;DHT22;10658;50.920;12.238;2023-07-24T04:11:37;19.50;99.90
21001;DHT22;10658;50.920;12.238;2023-07-24T04:15:43;19.50;99.90
21001;DHT22;10658;50.920;12.238;2023-07-24T04:19:48;19.60;99.90
21001;DHT22;10658;50.920;12.238;2023-07-24T04:23:50;19.70;99.90
21001;DHT22;10658;50.920;12.238;2023-07-24T04:27:52;19.80;99.90
21001;DHT22;10658;50.920;12.238;2023-07-24T04:31:54;19.80;99.90
21001;DHT22;10658;50.920;12.238;2023-07-24T04:35:56;19.90;99.90
21001;DHT22;10658;50.920;12.238;2023-07-24T04:39:58;20.00;99.90
21001;DHT22;10658;50.920;12.238;2023-07-24T04:44:00;20.10;99.90
21001;DHT22;10658;50.920;12.238;2023-07-24T04:48:03;20.10;99.90
21001;DHT22;10658;50.920;12.238;2023-07-24T04:52:07;20.20;99.90
21001;DHT22;10658;50.920;12.238;2023-07-24T04:56:11;20.30;99.90
21001;DHT22;10658;50.920;12.238;2023-07-24T05:00:14;20.40;99.90
21001;DHT22;10658;50.920;12.238;2023-07-24T05:04:19;20.40;99.90
21001;DHT22;10658;50.920;12.238;2023-07-24T05:08:22;20.50;99.90
21001;DHT22;10658;50.920;12.238;2023-07-24T05:12:25;20.60;99.90
21001;DHT22;10658;50.920;12.238;2023-07-24T05:16:29;20.60;99.90
21001;DHT22;10658;50.920;12.238;2023-07-24T05:20:34;20.60;99.90
21001;DHT22;10658;50.920;12.238;2023-07-24T05:24:42;20.90;99.90
21001;DHT22;10658;50.920;12.238;2023-07-24T05:28:44;21.30;99.90
21001;DHT22;10658;50.920;12.238;2023-07-24T05:32:47;21.60;99.90
21001;DHT22;10658;50.920;12.238;2023-07-24T05:36:49;21.70;99.90
21001;DHT22;10658;50.920;12.238;2023-07-24T05:40:58;21.80;99.90
21001;DHT22;10658;50.920;12.238;2023-07-24T05:45:01;21.80;99.90
21001;DHT22;10658;50.920;12.238;2023-07-24T05:49:04;21.70;99.90
21001;DHT22;10658;50.920;12.238;2023-07-24T05:53:06;21.80;99.90
21001;DHT22;10658;50.920;12.238;2023-07-24T05:57:10;21.90;99.90
21001;DHT22;10658;50.920;12.238;2023-07-24T06:01:13;21.90;99.90
21001;DHT22;10658;50.920;12.238;2023-07-24T06:05:17;21.90;99.90
21001;DHT22;10658;50.920;12.238;2023-07-24T06:09:21;22.00;99.90
21001;DHT22;10658;50.920;12.238;2023-07-24T06:13:23;22.00;99.90
21001;DHT22;10658;50.920;12.238;2023-07-24T06:17:25;22.10;99.90
21001;DHT22;10658;50.920;12.238;2023-07-24T06:21:28;22.20;99.90
21001;DHT22;10658;50.920;12.238;2023-07-24T06:25:30;22.50;99.90
21001;DHT22;10658;50.920;12.238;2023-07-24T06:29:33;22.90;99.90
21001;DHT22;10658;50.920;12.238;2023-07-24T06:33:35;23.30;99.90
21001;DHT22;10658;50.920;12.238;2023-07-24T06:37:38;23.60;99.90
21001;DHT22;10658;50.920;12.238;2023-07-24T06:41:42;23.90;99.90
21001;DHT22;10658;50.920;12.238;2023-07-24T06:45:45;23.90;99.90
21001;DHT22;10658;50.920;12.238;2023-07-24T06:49:47;23.90;99.90
21001;DHT22;10658;50.920;12.238;2023-07-24T06:53:49;24.00;99.90
21001;DHT22;10658;50.920;12.238;2023-07-24T06:57:51;24.10;99.90
21001;DHT22;10658;50.920;12.238;2023-07-24T07:01:55;24.10;99.90
21001;DHT22;10658;50.920;12.238;2023-07-24T07:06:00;24.20;99.90
21001;DHT22;10658;50.920;12.238;2023-07-24T07:10:03;24.30;99.90
21001;DHT22;10658;50.920;12.238;2023-07-24T07:14:05;24.20;99.90
21001;DHT22;10658;50.920;12.238;2023-07-24T07:18:10;24.10;99.90
21001;DHT22;10658;50.920;12.238;2023-07-24T07:22:12;24.10;99.90
21001;DHT22;10658;50.920;12.238;2023-07-24T07:26:14;24.30;99.90
21001;DHT22;10658;50.920;12.238;2023-07-24T07:30:16;24.50;99.90
21001;DHT22;10658;50.920;12.238;2023-07-24T07:34:18;24.60;99.90
21001;DHT22;10658;50.920;12.238;2023-07-24T07:38:20;24.70;99.90
21001;DHT22;10658;50.920;12.238;2023-07-24T07:42:24;24.70;99.90
21001;DHT22;10658;50.920;12.238;2023-07-24T07:46:26;24.80;99.90
21001;DHT22;10658;50.920;12.238;2023-07-24T07:50:27;25.00;99.90
21001;DHT22;10658;50.920;12.238;2023-07-24T07:54:29;25.00;99.90
21001;DHT22;10658;50.920;12.238;2023-07-24T07:58:32;25.10;99.90
21001;DHT22;10658;50.920;12.238;2023-07-24T08:02:34;25.20;99.90
21001;DHT22;10658;50.920;12.238;2023-07-24T08:06:37;25.30;99.90
21001;DHT22;10658;50.920;12.238;2023-07-24T08:10:39;25.50;99.90
21001;DHT22;10658;50.920;12.238;2023-07-24T08:14:41;25.60;99.90
21001;DHT22;10658;50.920;12.238;2023-07-24T08:18:44;25.80;99.90
21001;DHT22;10658;50.920;12.238;2023-07-24T08:22:46;26.10;99.90
21001;DHT22;10658;50.920;12.238;2023-07-24T08:26:48;26.40;99.90
21001;DHT22;10658;50.920;12.238;2023-07-24T08:30:58;26.40;99.90
21001;DHT22;10658;50.920;12.238;2023-07-24T08:35:00;26.80;99.90
21001;DHT22;10658;50.920;12.238;2023-07-24T08:39:03;26.40;99.90
21001;DHT22;10658;50.920;12.238;2023-07-24T08:43:05;26.40;99.90
21001;DHT22;10658;50.920;12.238;2023-07-24T08:47:10;26.60;99.90
21001;DHT22;10658;50.920;12.238;2023-07-24T08:51:15;26.60;99.90
21001;DHT22;10658;50.920;12.238;2023-07-24T08:55:20;26.40;99.90
21001;DHT22;10658;50.920;12.238;2023-07-24T08:59:23;26.50;99.90
21001;DHT22;10658;50.920;12.238;2023-07-24T09:03:25;26.60;99.90
21001;DHT22;10658;50.920;12.238;2023-07-24T09:07:30;26.70;99.90
21001;DHT22;10658;50.920;12.238;2023-07-24T09:11:33;26.80;99.90
21001;DHT22;10658;50.920;12.238;2023-07-24T09:15:46;26.60;99.90
21001;DHT22;10658;50.920;12.238;2023-07-24T09:19:56;26.50;99.90
21001;DHT22;10658;50.920;12.238;2023-07-24T09:24:10;26.30;99.90
21001;DHT22;10658;50.920;12.238;2023-07-24T09:28:15;25.50;99.90
21001;DHT22;10658;50.920;12.238;2023-07-24T09:32:24;24.60;99.90
21001;DHT22;10658;50.920;12.238;2023-07-24T09:36:26;24.40;99.90
21001;DHT22;10658;50.920;12.238;2023-07-24T09:40:45;24.30;99.90
21001;DHT22;10658;50.920;12.238;2023-07-24T09:44:48;24.20;99.90
21001;DHT22;10658;50.920;12.238;2023-07-24T09:48:52;24.30;99.90
21001;DHT22;10658;50.920;12.238;2023-07-24T09:52:56;24.80;99.90
21001;DHT22;10658;50.920;12.238;2023-07-24T09:57:01;25.20;99.90
21001;DHT22;10658;50.920;12.238;2023-07-24T10:01:09;25.30;99.90
21001;DHT22;10658;50.920;12.238;2023-07-24T10:05:13;25.50;99.90
21001;DHT22;10658;50.920;12.238;2023-07-24T10:09:21;25.90;99.90
21001;DHT22;10658;50.920;12.238;2023-07-24T10:13:29;26.90;99.90
21001;DHT22;10658;50.920;12.238;2023-07-24T10:17:40;28.10;99.90
21001;DHT22;10658;50.920;12.238;2023-07-24T10:21:47;29.00;99.90
21001;DHT22;10658;50.920;12.238;2023-07-24T10:25:52;29.20;99.90
21001;DHT22;10658;50.920;12.238;2023-07-24T10:30:04;28.70;99.90
21001;DHT22;10658;50.920;12.238;2023-07-24T10:34:11;28.90;99.90
21001;DHT22;10658;50.920;12.238;2023-07-24T10:38:16;28.80;99.90
21001;DHT22;10658;50.920;12.238;2023-07-24T10:42:22;28.10;99.90
21001;DHT22;10658;50.920;12.238;2023-07-24T10:46:34;28.80;99.90
21001;DHT22;10658;50.920;12.238;2023-07-24T10:50:40;29.40;99.90
21001;DHT22;10658;50.920;12.238;2023-07-24T10:54:41;28.60;99.90
21001;DHT22;10658;50.920;12.238;2023-07-24T10:58:43;28.30;99.90
21001;DHT22;10658;50.920;12.238;2023-07-24T11:02:44;27.70;99.90
21001;DHT22;10658;50.920;12.238;2023-07-24T11:06:45;27.40;99.90
21001;DHT22;10658;50.920;12.238;2023-07-24T11:10:51;26.90;99.90
21001;DHT22;10658;50.920;12.238;2023-07-24T11:14:55;27.10;99.90
21001;DHT22;10658;50.920;12.238;2023-07-24T11:18:58;27.20;99.90
21001;DHT22;10658;50.920;12.238;2023-07-24T11:23:03;27.50;99.90
21001;DHT22;10658;50.920;12.238;2023-07-24T11:27:16;27.60;99.90
21001;DHT22;10658;50.920;12.238;2023-07-24T11:31:21;27.90;99.90
21001;DHT22;10658;50.920;12.238;2023-07-24T11:35:23;28.00;99.90
21001;DHT22;10658;50.920;12.238;2023-07-24T11:39:26;28.20;99.90
21001;DHT22;10658;50.920;12.238;2023-07-24T11:43:29;27.90;99.90
21001;DHT22;10658;50.920;12.238;2023-07-24T11:47:31;27.50;99.90
21001;DHT22;10658;50.920;12.238;2023-07-24T11:51:33;26.80;99.90
21001;DHT22;10658;50.920;12.238;2023-07-24T11:55:38;26.80;99.90
21001;DHT22;10658;50.920;12.238;2023-07-24T11:59:42;26.80;99.90
21001;DHT22;10658;50.920;12.238;2023-07-24T12:03:45;27.10;99.90
21001;DHT22;10658;50.920;12.238;2023-07-24T12:07:56;28.00;99.90
21001;DHT22;10658;50.920;12.238;2023-07-24T12:11:59;28.50;99.90
21001;DHT22;10658;50.920;12.238;2023-07-24T12:16:01;28.30;99.90
21001;DHT22;10658;50.920;12.238;2023-07-24T12:20:06;28.00;99.90
21001;DHT22;10658;50.920;12.238;2023-07-24T12:24:12;27.70;99.90
21001;DHT22;10658;50.920;12.238;2023-07-24T12:28:14;27.70;99.90
21001;DHT22;10658;50.920;12.238;2023-07-24T12:32:18;27.90;99.90
21001;DHT22;10658;50.920;12.238;2023-07-24T12:36:23;28.10;99.90
21001;DHT22;10658;50.920;12.238;2023-07-24T12:40:26;28.10;99.90
21001;DHT22;10658;50.920;12.238;2023-07-24T12:44:29;27.80;99.90
21001;DHT22;10658;50.920;12.238;2023-07-24T12:48:32;27.20;99.90
21001;DHT22;10658;50.920;12.238;2023-07-24T12:52:35;26.80;99.90
21001;DHT22;10658;50.920;12.238;2023-07-24T12:56:37;26.60;99.90
21001;DHT22;10658;50.920;12.238;2023-07-24T13:00:40;26.50;99.90
21001;DHT22;10658;50.920;12.238;2023-07-24T13:04:44;26.40;99.90
21001;DHT22;10658;50.920;12.238;2023-07-24T13:08:46;26.50;99.90
21001;DHT22;10658;50.920;12.238;2023-07-24T13:12:54;27.00;99.90
21001;DHT22;10658;50.920;12.238;2023-07-24T13:17:00;27.20;99.90
21001;DHT22;10658;50.920;12.238;2023-07-24T13:21:16;27.20;99.90
21001;DHT22;10658;50.920;12.238;2023-07-24T13:30:00;27.10;99.90
21001;DHT22;10658;50.920;12.238;2023-07-24T13:34:24;27.10;99.90
21001;DHT22;10658;50.920;12.238;2023-07-24T13:38:35;27.20;99.90
21001;DHT22;10658;50.920;12.238;2023-07-24T13:43:01;27.30;99.90
21001;DHT22;10658;50.920;12.238;2023-07-24T13:47:18;27.40;99.90
21001;DHT22;10658;50.920;12.238;2023-07-24T13:51:31;27.30;99.90
21001;DHT22;10658;50.920;12.238;2023-07-24T13:55:45;27.30;99.90
21001;DHT22;10658;50.920;12.238;2023-07-24T13:59:58;27.20;99.90
21001;DHT22;10658;50.920;12.238;2023-07-24T14:04:16;27.10;99.90
21001;DHT22;10658;50.920;12.238;2023-07-24T14:08:35;26.90;99.90
21001;DHT22;10658;50.920;12.238;2023-07-24T14:13:18;26.70;99.90
21001;DHT22;10658;50.920;12.238;2023-07-24T14:17:51;26.70;99.90
21001;DHT22;10658;50.920;12.238;2023-07-24T14:22:10;27.00;99.90
21001;DHT22;10658;50.920;12.238;2023-07-24T14:26:21;27.10;99.90
21001;DHT22;10658;50.920;12.238;2023-07-24T14:30:47;27.00;99.90
21001;DHT22;10658;50.920;12.238;2023-07-24T14:35:01;27.20;99.90
21001;DHT22;10658;50.920;12.238;2023-07-24T14:39:12;27.70;99.90
21001;DHT22;10658;50.920;12.238;2023-07-24T14:43:47;27.80;99.90
21001;DHT22;10658;50.920;12.238;2023-07-24T14:47:54;27.90;99.90
21001;DHT22;10658;50.920;12.238;2023-07-24T14:51:56;28.00;99.90
21001;DHT22;10658;50.920;12.238;2023-07-24T14:56:32;28.30;99.90
21001;DHT22;10658;50.920;12.238;2023-07-24T15:01:00;28.00;99.90
21001;DHT22;10658;50.920;12.238;2023-07-24T15:05:09;28.50;99.90
21001;DHT22;10658;50.920;12.238;2023-07-24T15:09:11;28.10;99.90
21001;DHT22;10658;50.920;12.238;2023-07-24T15:13:25;27.90;99.90
21001;DHT22;10658;50.920;12.238;2023-07-24T15:17:31;28.20;99.90
21001;DHT22;10658;50.920;12.238;2023-07-24T15:21:37;29.00;99.90
21001;DHT22;10658;50.920;12.238;2023-07-24T15:26:06;29.20;99.90
21001;DHT22;10658;50.920;12.238;2023-07-24T15:30:14;28.90;99.90
21001;DHT22;10658;50.920;12.238;2023-07-24T15:34:23;29.20;99.90
21001;DHT22;10658;50.920;12.238;2023-07-24T15:38:30;28.90;99.90
21001;DHT22;10658;50.920;12.238;2023-07-24T15:42:35;29.10;99.90
21001;DHT22;10658;50.920;12.238;2023-07-24T15:46:39;28.90;99.90
21001;DHT22;10658;50.920;12.238;2023-07-24T15:50:44;29.10;99.90
21001;DHT22;10658;50.920;12.238;2023-07-24T15:54:49;28.20;99.90
21001;DHT22;10658;50.920;12.238;2023-07-24T15:58:54;27.90;99.90
21001;DHT22;10658;50.920;12.238;2023-07-24T16:02:57;27.30;99.90
21001;DHT22;10658;50.920;12.238;2023-07-24T16:07:01;27.00;99.90
21001;DHT22;10658;50.920;12.238;2023-07-24T16:11:03;27.00;99.90
21001;DHT22;10658;50.920;12.238;2023-07-24T16:15:10;27.00;99.90
21001;DHT22;10658;50.920;12.238;2023-07-24T16:19:18;26.80;99.90
21001;DHT22;10658;50.920;12.238;2023-07-24T16:23:24;27.00;99.90
21001;DHT22;10658;50.920;12.238;2023-07-24T16:27:27;27.60;99.90
21001;DHT22;10658;50.920;12.238;2023-07-24T16:31:34;27.70;99.90
21001;DHT22;10658;50.920;12.238;2023-07-24T16:35:42;27.80;99.90
21001;DHT22;10658;50.920;12.238;2023-07-24T16:39:45;27.80;99.90
21001;DHT22;10658;50.920;12.238;2023-07-24T16:43:49;27.60;99.90
21001;DHT22;10658;50.920;12.238;2023-07-24T16:47:52;27.70;99.90
21001;DHT22;10658;50.920;12.238;2023-07-24T16:51:53;27.10;99.90
21001;DHT22;10658;50.920;12.238;2023-07-24T16:55:55;26.70;99.90
21001;DHT22;10658;50.920;12.238;2023-07-24T16:59:56;26.50;99.90
21001;DHT22;10658;50.920;12.238;2023-07-24T17:03:58;26.30;99.90
21001;DHT22;10658;50.920;12.238;2023-07-24T17:08:00;26.20;99.90
21001;DHT22;10658;50.920;12.238;2023-07-24T17:12:02;26.20;99.90
21001;DHT22;10658;50.920;12.238;2023-07-24T17:16:06;26.20;99.90
21001;DHT22;10658;50.920;12.238;2023-07-24T17:20:09;26.20;99.90
21001;DHT22;10658;50.920;12.238;2023-07-24T17:24:11;26.00;99.90
21001;DHT22;10658;50.920;12.238;2023-07-24T17:28:14;25.80;99.90
21001;DHT22;10658;50.920;12.238;2023-07-24T17:32:16;25.60;99.90
21001;DHT22;10658;50.920;12.238;2023-07-24T17:36:23;25.50;99.90
21001;DHT22;10658;50.920;12.238;2023-07-24T17:40:25;24.10;99.90
21001;DHT22;10658;50.920;12.238;2023-07-24T17:44:29;22.60;99.90
21001;DHT22;10658;50.920;12.238;2023-07-24T17:48:34;21.70;99.90
21001;DHT22;10658;50.920;12.238;2023-07-24T17:52:38;20.90;99.90
21001;DHT22;10658;50.920;12.238;2023-07-24T17:56:54;20.50;99.90
21001;DHT22;10658;50.920;12.238;2023-07-24T18:01:02;20.50;99.90
21001;DHT22;10658;50.920;12.238;2023-07-24T18:05:13;20.50;99.90
21001;DHT22;10658;50.920;12.238;2023-07-24T18:09:18;20.20;99.90
21001;DHT22;10658;50.920;12.238;2023-07-24T18:13:23;20.00;99.90
21001;DHT22;10658;50.920;12.238;2023-07-24T18:17:25;19.80;99.90
21001;DHT22;10658;50.920;12.238;2023-07-24T18:21:27;19.90;99.90
21001;DHT22;10658;50.920;12.238;2023-07-24T18:25:29;20.00;99.90
21001;DHT22;10658;50.920;12.238;2023-07-24T18:29:32;20.20;99.90
21001;DHT22;10658;50.920;12.238;2023-07-24T18:33:35;20.20;99.90
21001;DHT22;10658;50.920;12.238;2023-07-24T18:37:38;20.00;99.90
21001;DHT22;10658;50.920;12.238;2023-07-24T18:41:40;19.90;99.90
21001;DHT22;10658;50.920;12.238;2023-07-24T18:45:44;19.90;99.90
21001;DHT22;10658;50.920;12.238;2023-07-24T18:49:49;19.70;99.90
21001;DHT22;10658;50.920;12.238;2023-07-24T18:53:50;19.30;99.90
21001;DHT22;10658;50.920;12.238;2023-07-24T18:57:53;19.10;99.90
21001;DHT22;10658;50.920;12.238;2023-07-24T19:01:57;19.10;99.90
21001;DHT22;10658;50.920;12.238;2023-07-24T19:05:59;18.90;99.90
21001;DHT22;10658;50.920;12.238;2023-07-24T19:10:06;18.90;99.90
21001;DHT22;10658;50.920;12.238;2023-07-24T19:14:10;18.90;99.90
21001;DHT22;10658;50.920;12.238;2023-07-24T19:18:12;19.00;99.90
21001;DHT22;10658;50.920;12.238;2023-07-24T19:22:13;19.00;99.90
21001;DHT22;10658;50.920;12.238;2023-07-24T19:26:14;18.80;99.90
21001;DHT22;10658;50.920;12.238;2023-07-24T19:30:15;18.80;99.90
21001;DHT22;10658;50.920;12.238;2023-07-24T19:34:16;18.50;99.90
21001;DHT22;10658;50.920;12.238;2023-07-24T19:38:17;18.40;99.90
21001;DHT22;10658;50.920;12.238;2023-07-24T19:42:17;18.40;99.90
21001;DHT22;10658;50.920;12.238;2023-07-24T19:46:18;18.30;99.90
21001;DHT22;10658;50.920;12.238;2023-07-24T19:50:19;18.30;99.90
21001;DHT22;10658;50.920;12.238;2023-07-24T19:54:20;18.40;99.90
21001;DHT22;10658;50.920;12.238;2023-07-24T19:58:21;18.50;99.90
21001;DHT22;10658;50.920;12.238;2023-07-24T20:02:22;18.50;99.90
21001;DHT22;10658;50.920;12.238;2023-07-24T20:06:23;18.60;99.90
21001;DHT22;10658;50.920;12.238;2023-07-24T20:10:25;18.60;99.90
21001;DHT22;10658;50.920;12.238;2023-07-24T20:14:26;18.50;99.90
21001;DHT22;10658;50.920;12.238;2023-07-24T20:18:27;18.50;99.90
21001;DHT22;10658;50.920;12.238;2023-07-24T20:22:28;18.60;99.90
21001;DHT22;10658;50.920;12.238;2023-07-24T20:26:29;18.80;99.90
21001;DHT22;10658;50.920;12.238;2023-07-24T20:30:29;18.90;99.90
21001;DHT22;10658;50.920;12.238;2023-07-24T20:34:30;19.00;99.90
21001;DHT22;10658;50.920;12.238;2023-07-24T20:38:31;19.10;99.90
21001;DHT22;10658;50.920;12.238;2023-07-24T20:42:32;19.10;99.90
21001;DHT22;10658;50.920;12.238;2023-07-24T20:46:32;19.10;99.90
21001;DHT22;10658;50.920;12.238;2023-07-24T20:50:37;19.00;99.90
21001;DHT22;10658;50.920;12.238;2023-07-24T20:54:38;18.60;99.90
21001;DHT22;10658;50.920;12.238;2023-07-24T20:58:39;18.50;99.90
21001;DHT22;10658;50.920;12.238;2023-07-24T21:02:40;18.50;99.90
21001;DHT22;10658;50.920;12.238;2023-07-24T21:06:41;18.50;99.90
21001;DHT22;10658;50.920;12.238;2023-07-24T21:10:41;18.00;99.90
21001;DHT22;10658;50.920;12.238;2023-07-24T21:14:42;17.90;99.90
21001;DHT22;10658;50.920;12.238;2023-07-24T21:18:43;17.80;99.90
21001;DHT22;10658;50.920;12.238;2023-07-24T21:22:43;17.90;99.90
21001;DHT22;10658;50.920;12.238;2023-07-24T21:26:44;17.90;99.90
21001;DHT22;10658;50.920;12.238;2023-07-24T21:30:46;18.00;99.90
21001;DHT22;10658;50.920;12.238;2023-07-24T21:34:48;18.20;99.90
21001;DHT22;10658;50.920;12.238;2023-07-24T21:38:49;18.20;99.90
21001;DHT22;10658;50.920;12.238;2023-07-24T21:42:50;18.40;99.90
21001;DHT22;10658;50.920;12.238;2023-07-24T21:46:50;18.50;99.90
21001;DHT22;10658;50.920;12.238;2023-07-24T21:50:51;18.60;99.90
21001;DHT22;10658;50.920;12.238;2023-07-24T21:54:52;18.60;99.90
21001;DHT22;10658;50.920;12.238;2023-07-24T21:58:52;18.70;99.90
21001;DHT22;10658;50.920;12.238;2023-07-24T22:02:53;18.80;99.90
21001;DHT22;10658;50.920;12.238;2023-07-24T22:06:54;18.90;99.90
21001;DHT22;10658;50.920;12.238;2023-07-24T22:10:55;18.80;99.90
21001;DHT22;10658;50.920;12.238;2023-07-24T22:14:56;18.60;99.90
21001;DHT22;10658;50.920;12.238;2023-07-24T22:18:56;18.20;99.90
21001;DHT22;10658;50.920;12.238;2023-07-24T22:22:57;17.80;99.90
21001;DHT22;10658;50.920;12.238;2023-07-24T22:26:58;17.60;99.90
21001;DHT22;10658;50.920;12.238;2023-07-24T22:30:58;17.40;99.90
21001;DHT22;10658;50.920;12.238;2023-07-24T22:34:59;17.30;99.90
21001;DHT22;10658;50.920;12.238;2023-07-24T22:39:00;17.40;99.90
21001;DHT22;10658;50.920;12.238;2023-07-24T22:43:02;17.50;99.90
21001;DHT22;10658;50.920;12.238;2023-07-24T22:47:04;17.50;99.90
21001;DHT22;10658;50.920;12.238;2023-07-24T22:51:04;17.30;99.90
21001;DHT22;10658;50.920;12.238;2023-07-24T22:55:05;17.20;99.90
21001;DHT22;10658;50.920;12.238;2023-07-24T22:59:26;17.20;99.90
21001;DHT22;10658;50.920;12.238;2023-07-24T23:03:27;17.20;99.90
21001;DHT22;10658;50.920;12.238;2023-07-24T23:07:28;17.30;99.90
21001;DHT22;10658;50.920;12.238;2023-07-24T23:11:29;17.30;99.90
21001;DHT22;10658;50.920;12.238;2023-07-24T23:15:32;17.20;99.90
21001;DHT22;10658;50.920;12.238;2023-07-24T23:19:32;17.20;99.90
21001;DHT22;10658;50.920;12.238;2023-07-24T23:23:33;17.00;99.90
21001;DHT22;10658;50.920;12.238;2023-07-24T23:27:34;16.90;99.90
21001;DHT22;10658;50.920;12.238;2023-07-24T23:31:35;16.90;99.90
21001;DHT22;10658;50.920;12.238;2023-07-24T23:35:35;16.80;99.90
21001;DHT22;10658;50.920;12.238;2023-07-24T23:39:36;16.80;99.90
21001;DHT22;10658;50.920;12.238;2023-07-24T23:43:37;16.70;99.90
21001;DHT22;10658;50.920;12.238;2023-07-24T23:47:38;16.50;99.90
21001;DHT22;10658;50.920;12.238;2023-07-24T23:51:38;16.40;99.90
21001;DHT22;10658;50.920;12.238;2023-07-24T23:55:39;16.40;99.90
21001;DHT22;10658;50.920;12.238;2023-07-24T23:59:40;16.30;99.90
